createdAt,value
2022-12-04T00:03:42.239Z,3.30
2022-12-04T00:08:45.955Z,3.50
2022-12-04T00:13:47.833Z,3.50
2022-12-04T00:18:49.888Z,3.40
2022-12-04T00:23:52.299Z,3.40
2022-12-04T00:28:54.410Z,3.50
2022-12-04T00:33:56.481Z,3.50
2022-12-04T00:39:00.483Z,3.50
2022-12-04T00:44:02.898Z,3.50
2022-12-04T00:49:04.721Z,3.50
2022-12-04T00:54:06.508Z,3.50
2022-12-04T00:59:08.490Z,3.40
2022-12-04T01:04:10.277Z,3.50
2022-12-04T01:09:12.027Z,3.50
2022-12-04T01:14:13.806Z,3.50
2022-12-04T01:19:15.750Z,3.50
2022-12-04T01:24:17.686Z,3.40
2022-12-04T01:29:19.520Z,3.40
2022-12-04T01:34:21.287Z,3.40
2022-12-04T01:39:23.067Z,3.50
2022-12-04T01:44:26.124Z,3.50
2022-12-04T01:49:47.914Z,3.50
2022-12-04T01:54:54.426Z,3.50
2022-12-04T02:00:00.675Z,3.50
2022-12-04T02:05:05.649Z,3.50
2022-12-04T02:10:09.858Z,3.50
2022-12-04T02:15:48.511Z,3.50
2022-12-04T02:21:05.151Z,3.50
2022-12-04T02:26:34.575Z,3.50
2022-12-04T02:32:06.301Z,3.50
2022-12-04T02:37:31.683Z,3.40
2022-12-04T02:42:45.712Z,3.40
2022-12-04T02:47:47.592Z,3.40
2022-12-04T02:52:58.687Z,3.60
2022-12-04T02:58:06.005Z,3.60
2022-12-04T03:03:27.545Z,3.60
2022-12-04T03:08:37.294Z,3.60
2022-12-04T03:13:50.075Z,3.60
2022-12-04T03:19:07.750Z,3.60
2022-12-04T03:24:19.443Z,3.50
2022-12-04T03:29:37.318Z,3.50
2022-12-04T03:35:01.423Z,3.50
2022-12-04T03:40:15.293Z,3.60
2022-12-04T03:45:43.382Z,3.60
2022-12-04T03:50:59.574Z,3.60
2022-12-04T03:56:30.772Z,3.60
2022-12-04T04:01:41.673Z,3.60
2022-12-04T04:06:52.744Z,3.60
2022-12-04T04:12:01.821Z,3.60
2022-12-04T04:17:38.020Z,3.60
2022-12-04T04:22:59.441Z,3.60
2022-12-04T04:28:01.192Z,3.70
2022-12-04T04:33:16.282Z,3.70
2022-12-04T04:38:31.265Z,3.70
2022-12-04T04:43:39.978Z,3.70
2022-12-04T04:48:47.504Z,3.70
2022-12-04T04:53:52.240Z,3.70
2022-12-04T04:58:54.045Z,3.80
2022-12-04T05:03:55.790Z,3.70
2022-12-04T05:08:57.622Z,3.70
2022-12-04T05:13:59.365Z,3.70
2022-12-04T05:19:19.984Z,3.70
2022-12-04T05:24:21.743Z,3.70
2022-12-04T05:29:23.462Z,3.70
2022-12-04T05:34:25.282Z,3.80
2022-12-04T05:39:27.149Z,3.80
2022-12-04T05:44:28.896Z,3.80
2022-12-04T05:49:31.701Z,3.80
2022-12-04T05:54:33.463Z,3.80
2022-12-04T05:59:35.493Z,3.70
2022-12-04T06:04:38.485Z,3.80
2022-12-04T06:09:40.241Z,3.90
2022-12-04T06:14:41.967Z,3.80
2022-12-04T06:19:43.734Z,3.80
2022-12-04T06:24:45.657Z,3.80
2022-12-04T06:29:47.521Z,3.90
2022-12-04T06:34:53.879Z,3.80
2022-12-04T06:39:55.938Z,3.90
2022-12-04T06:44:57.823Z,3.90
2022-12-04T06:49:59.573Z,4.00
2022-12-04T06:55:01.398Z,4.00
2022-12-04T07:00:03.921Z,4.00
2022-12-04T07:05:06.074Z,3.90
2022-12-04T07:10:08.119Z,4.00
2022-12-04T07:15:10.393Z,4.00
2022-12-04T07:20:12.592Z,4.00
2022-12-04T07:25:14.347Z,4.00
2022-12-04T07:30:16.466Z,4.10
2022-12-04T07:35:18.250Z,4.10
2022-12-04T07:40:19.994Z,4.10
2022-12-04T07:45:21.863Z,4.10
2022-12-04T07:50:23.619Z,4.10
2022-12-04T07:55:25.469Z,4.20
2022-12-04T08:00:27.267Z,4.20
2022-12-04T08:05:29.020Z,4.30
2022-12-04T08:10:30.806Z,4.30
2022-12-04T08:15:34.104Z,4.40
2022-12-04T08:20:35.865Z,4.50
2022-12-04T08:25:41.563Z,4.50
2022-12-04T08:30:43.381Z,4.50
2022-12-04T08:35:45.286Z,4.50
2022-12-04T08:40:47.034Z,4.50
2022-12-04T08:45:59.852Z,4.80
2022-12-04T08:51:04.324Z,4.60
2022-12-04T08:56:06.595Z,4.80
2022-12-04T09:01:11.069Z,5.00
2022-12-04T09:06:15.260Z,4.80
2022-12-04T09:11:20.535Z,4.70
2022-12-04T09:16:24.510Z,4.90
2022-12-04T09:21:26.521Z,4.70
2022-12-04T09:26:30.826Z,4.90
2022-12-04T09:31:32.825Z,5.00
2022-12-04T09:36:34.656Z,5.20
2022-12-04T09:41:36.348Z,4.90
2022-12-04T09:46:42.823Z,5.20
2022-12-04T09:51:46.550Z,5.30
2022-12-04T09:56:59.587Z,5.40
2022-12-04T10:02:29.631Z,5.20
2022-12-04T10:07:37.667Z,5.20
2022-12-04T10:12:54.934Z,5.30
2022-12-04T10:18:26.332Z,5.30
2022-12-04T10:23:43.155Z,5.40
2022-12-04T10:28:55.590Z,5.50
2022-12-04T10:34:05.542Z,5.40
2022-12-04T10:39:34.446Z,5.50
2022-12-04T10:44:36.227Z,5.60
2022-12-04T10:49:38.617Z,5.60
2022-12-04T10:54:51.770Z,5.60
2022-12-04T10:59:57.484Z,5.80
2022-12-04T11:05:02.821Z,5.70
2022-12-04T11:10:25.486Z,5.80
2022-12-04T11:15:27.440Z,5.80
2022-12-04T11:20:29.298Z,5.60
2022-12-04T11:25:37.010Z,5.60
2022-12-04T11:30:39.000Z,5.80
2022-12-04T11:35:40.832Z,5.70
2022-12-04T11:40:52.238Z,5.80
2022-12-04T11:45:55.504Z,5.90
2022-12-04T11:51:05.869Z,6.00
2022-12-04T11:56:34.388Z,6.10
2022-12-04T12:02:01.971Z,6.00
2022-12-04T12:07:10.697Z,6.00
2022-12-04T12:12:26.568Z,6.00
2022-12-04T12:17:46.898Z,6.00
2022-12-04T12:22:51.866Z,6.20
2022-12-04T12:28:02.988Z,6.30
2022-12-04T12:33:36.140Z,6.30
2022-12-04T12:38:50.884Z,6.30
2022-12-04T12:44:00.878Z,6.20
2022-12-04T12:49:10.842Z,6.20
2022-12-04T12:54:22.052Z,6.20
2022-12-04T12:59:27.235Z,6.30
2022-12-04T13:04:40.196Z,6.20
2022-12-04T13:09:48.291Z,6.40
2022-12-04T13:14:50.058Z,6.50
2022-12-04T13:19:56.300Z,6.40
2022-12-04T13:25:11.238Z,6.40
2022-12-04T13:30:18.721Z,6.40
2022-12-04T13:35:48.398Z,6.40
2022-12-04T13:41:04.073Z,6.40
2022-12-04T13:46:21.610Z,6.40
2022-12-04T13:51:45.888Z,6.30
2022-12-04T13:56:57.568Z,6.30
2022-12-04T14:02:21.748Z,6.30
2022-12-04T14:07:36.901Z,6.40
2022-12-04T14:12:42.127Z,6.30
2022-12-04T14:17:46.358Z,6.40
2022-12-04T14:22:48.106Z,6.40
2022-12-04T14:27:52.443Z,6.30
2022-12-04T14:33:09.582Z,6.30
2022-12-04T14:38:18.614Z,6.30
2022-12-04T14:43:27.342Z,6.30
2022-12-04T14:48:50.143Z,6.20
2022-12-04T14:54:22.672Z,6.20
2022-12-04T14:59:42.374Z,6.20
2022-12-04T15:04:46.387Z,6.20
2022-12-04T15:10:15.784Z,6.20
2022-12-04T15:15:24.963Z,6.20
2022-12-04T15:20:31.288Z,5.90
2022-12-04T15:26:12.707Z,6.00
2022-12-04T15:31:20.155Z,6.00
2022-12-04T15:36:46.991Z,6.00
2022-12-04T15:41:49.439Z,6.10
2022-12-04T15:46:54.507Z,6.00
2022-12-04T15:52:13.204Z,6.10
2022-12-04T15:57:42.180Z,6.10
2022-12-04T16:03:24.265Z,6.10
2022-12-04T16:08:31.743Z,6.00
2022-12-04T16:13:36.291Z,6.00
2022-12-04T16:18:38.712Z,6.00
2022-12-04T16:23:40.444Z,6.00
2022-12-04T16:28:42.220Z,6.00
2022-12-04T16:33:44.017Z,6.00
2022-12-04T16:38:45.982Z,6.00
2022-12-04T16:43:55.294Z,6.00
2022-12-04T16:48:57.106Z,5.90
2022-12-04T16:53:59.044Z,5.90
2022-12-04T16:59:00.835Z,5.90
2022-12-04T17:04:02.615Z,5.90
2022-12-04T17:09:05.446Z,5.80
2022-12-04T17:14:07.455Z,5.90
2022-12-04T17:19:10.372Z,5.90
2022-12-04T17:24:12.089Z,5.80
2022-12-04T17:29:13.855Z,5.90
2022-12-04T17:34:16.406Z,5.90
2022-12-04T17:39:18.630Z,5.90
2022-12-04T17:44:20.537Z,5.90
2022-12-04T17:49:22.314Z,5.90
2022-12-04T17:54:24.071Z,5.90
2022-12-04T17:59:25.998Z,5.80
2022-12-04T18:04:27.860Z,5.80
2022-12-04T18:09:30.152Z,5.90
2022-12-04T18:14:33.187Z,5.90
2022-12-04T18:19:34.971Z,5.90
2022-12-04T18:24:36.861Z,5.90
2022-12-04T18:29:38.661Z,5.80
2022-12-04T18:34:40.482Z,5.90
2022-12-04T18:39:42.331Z,5.90
2022-12-04T18:44:44.223Z,5.90
2022-12-04T18:49:47.083Z,5.90
2022-12-04T18:54:48.846Z,5.90
2022-12-04T18:59:50.610Z,5.90
2022-12-04T19:04:52.482Z,5.90
2022-12-04T19:10:11.246Z,5.90
2022-12-04T19:15:13.702Z,5.70
2022-12-04T19:20:18.155Z,5.80
2022-12-04T19:25:20.024Z,5.80
2022-12-04T19:30:21.849Z,5.80
2022-12-04T19:35:23.612Z,5.80
2022-12-04T19:40:25.453Z,5.80
2022-12-04T19:45:27.245Z,5.80
2022-12-04T19:50:29.036Z,5.70
2022-12-04T19:55:30.876Z,5.80
2022-12-04T20:00:33.108Z,5.80
2022-12-04T20:05:37.903Z,5.80
2022-12-04T20:10:39.708Z,5.80
2022-12-04T20:15:42.346Z,5.80
2022-12-04T20:20:45.709Z,5.70
2022-12-04T20:25:48.298Z,5.60
2022-12-04T20:30:50.220Z,5.60
2022-12-04T20:35:52.160Z,5.60
2022-12-04T20:40:54.447Z,5.50
2022-12-04T20:45:56.653Z,5.60
2022-12-04T20:51:01.109Z,5.60
2022-12-04T20:56:03.531Z,5.60
2022-12-04T21:01:10.409Z,5.60
2022-12-04T21:06:34.468Z,5.50
2022-12-04T21:11:42.557Z,5.50
2022-12-04T21:16:45.191Z,5.50
2022-12-04T21:21:47.620Z,5.50
2022-12-04T21:26:49.441Z,5.40
2022-12-04T21:31:51.215Z,5.50
2022-12-04T21:36:53.358Z,5.50
2022-12-04T21:42:13.744Z,5.50
2022-12-04T21:47:15.661Z,5.40
2022-12-04T21:52:17.891Z,5.50
2022-12-04T21:57:20.480Z,5.50
2022-12-04T22:02:22.542Z,5.50
2022-12-04T22:07:24.348Z,5.50
2022-12-04T22:12:48.650Z,5.50
2022-12-04T22:17:48.062Z,5.40
2022-12-04T22:22:49.945Z,5.30
2022-12-04T22:27:53.323Z,5.30
2022-12-04T22:32:55.184Z,5.40
2022-12-04T22:37:56.945Z,5.40
2022-12-04T22:42:58.693Z,5.30
2022-12-04T22:48:00.433Z,5.20
2022-12-04T22:53:02.171Z,5.20
2022-12-04T22:58:04.545Z,5.30
2022-12-04T23:03:06.357Z,5.30
2022-12-04T23:08:08.522Z,5.30
2022-12-04T23:13:10.638Z,5.30
2022-12-04T23:18:12.397Z,5.30
2022-12-04T23:23:14.236Z,5.40
2022-12-04T23:28:16.292Z,5.30
2022-12-04T23:33:18.149Z,5.30
2022-12-04T23:38:21.018Z,5.30
2022-12-04T23:43:22.769Z,5.30
2022-12-04T23:48:25.624Z,5.40
2022-12-04T23:53:27.434Z,5.40
2022-12-04T23:58:29.264Z,5.40
